createdAt,value
2018-03-20T04:32:31.161Z,-8.40
2018-03-20T04:34:58.791Z,-8.40
2018-03-20T04:37:26.584Z,-8.50
2018-03-20T04:39:54.264Z,-8.50
2018-03-20T04:42:22.008Z,-8.50
2018-03-20T04:44:49.688Z,-8.50
2018-03-20T04:47:18.169Z,-8.50
2018-03-20T04:49:45.800Z,-8.50
2018-03-20T04:52:13.588Z,-8.50
2018-03-20T04:54:42.870Z,-8.50
2018-03-20T04:57:10.548Z,-8.50
2018-03-20T04:59:38.316Z,-8.50
2018-03-20T05:02:06.055Z,-8.50
2018-03-20T05:04:33.819Z,-8.40
2018-03-20T05:07:01.581Z,-8.50
2018-03-20T05:09:29.261Z,-8.50
2018-03-20T05:11:57.024Z,-8.50
2018-03-20T05:14:24.690Z,-8.50
2018-03-20T05:16:52.321Z,-8.60
2018-03-20T05:22:27.325Z,-8.60
2018-03-20T05:24:55.778Z,-8.50
2018-03-20T05:27:23.723Z,-8.50
2018-03-20T05:29:51.486Z,-8.50
2018-03-20T05:32:19.249Z,-8.60
2018-03-20T05:34:46.928Z,-8.60
2018-03-20T05:37:14.675Z,-8.60
2018-03-20T05:39:42.352Z,-8.60
2018-03-20T05:42:10.018Z,-8.50
2018-03-20T05:44:38.492Z,-8.40
2018-03-20T05:47:25.884Z,-8.40
2018-03-20T05:53:00.539Z,-8.20
2018-03-20T05:55:28.405Z,-8.10
2018-03-20T05:57:56.166Z,-8.00
2018-03-20T06:00:23.849Z,-8.00
2018-03-20T06:02:51.692Z,-8.00
2018-03-20T06:05:19.372Z,-8.00
2018-03-20T06:07:47.035Z,-7.90
2018-03-20T06:10:14.797Z,-7.80
2018-03-20T06:12:42.456Z,-7.80
2018-03-20T06:15:10.120Z,-7.60
2018-03-20T06:17:37.964Z,-7.60
2018-03-20T06:20:06.033Z,-7.50
2018-03-20T06:22:33.669Z,-7.40
2018-03-20T06:25:01.465Z,-7.30
2018-03-20T06:27:29.136Z,-7.20
2018-03-20T06:29:56.764Z,-7.00
2018-03-20T06:32:24.441Z,-7.00
2018-03-20T06:34:52.072Z,-6.80
2018-03-20T06:37:19.708Z,-6.70
2018-03-20T06:39:48.129Z,-6.30
2018-03-20T06:42:15.899Z,-6.40
2018-03-20T06:44:43.661Z,-6.20
2018-03-20T06:47:11.343Z,-6.00
2018-03-20T06:49:39.189Z,-5.90
2018-03-20T06:52:06.878Z,-5.70
2018-03-20T06:54:34.633Z,-5.60
2018-03-20T06:57:02.373Z,-5.30
2018-03-20T06:59:30.060Z,-5.20
2018-03-20T07:01:58.514Z,-5.00
2018-03-20T07:04:26.277Z,-5.10
2018-03-20T07:06:53.948Z,-4.90
2018-03-20T07:09:21.616Z,-4.70
2018-03-20T07:11:49.369Z,-4.50
2018-03-20T07:14:17.144Z,-4.30
2018-03-20T07:16:44.889Z,-4.20
2018-03-20T07:19:12.649Z,-4.10
2018-03-20T07:21:40.432Z,-4.00
2018-03-20T07:24:08.278Z,-3.80
2018-03-20T07:26:35.908Z,-3.70
2018-03-20T07:29:03.589Z,-3.80
2018-03-20T07:31:31.277Z,-3.70
2018-03-20T07:33:59.037Z,-3.50
2018-03-20T07:36:26.886Z,-3.40
2018-03-20T07:38:54.548Z,-3.00
2018-03-20T07:41:22.220Z,-3.20
2018-03-20T07:43:49.888Z,-2.90
2018-03-20T07:46:17.516Z,-2.80
2018-03-20T07:48:45.292Z,-2.40
2018-03-20T07:51:12.951Z,-2.30
2018-03-20T07:53:40.632Z,-2.20
2018-03-20T07:56:08.392Z,-2.00
2018-03-20T07:58:36.139Z,-1.70
2018-03-20T08:01:03.799Z,-1.50
2018-03-20T08:03:31.668Z,-1.40
2018-03-20T08:05:59.344Z,-1.30
2018-03-20T08:08:27.005Z,-1.20
2018-03-20T08:10:54.748Z,-1.10
2018-03-20T08:13:22.511Z,-1.10
2018-03-20T08:15:50.188Z,-1.00
2018-03-20T08:18:18.037Z,-1.10
2018-03-20T08:20:45.669Z,-1.20
2018-03-20T08:23:13.379Z,-1.60
2018-03-20T08:25:41.140Z,-1.20
2018-03-20T08:28:08.802Z,-1.00
2018-03-20T08:30:36.461Z,-0.90
2018-03-20T08:33:04.224Z,-0.90
2018-03-20T08:35:31.967Z,-1.00
2018-03-20T08:37:59.731Z,-1.20
2018-03-20T08:40:27.596Z,-1.20
2018-03-20T08:42:55.276Z,-0.90
2018-03-20T08:45:22.936Z,-0.90
2018-03-20T08:47:50.885Z,-0.80
2018-03-20T08:50:18.620Z,-0.60
2018-03-20T08:52:46.996Z,-0.50
2018-03-20T08:55:14.788Z,-0.60
2018-03-20T08:57:42.415Z,-0.70
2018-03-20T09:00:10.054Z,-0.70
2018-03-20T09:02:38.509Z,-0.70
2018-03-20T09:05:06.141Z,-0.70
2018-03-20T09:07:33.776Z,-0.50
2018-03-20T09:10:01.453Z,-0.40
2018-03-20T09:12:29.147Z,-0.20
2018-03-20T09:14:56.757Z,-0.20
2018-03-20T09:17:24.431Z,-0.20
2018-03-20T09:19:52.110Z,0.10
2018-03-20T09:22:19.750Z,0.20
2018-03-20T09:24:47.404Z,0.50
2018-03-20T09:27:15.093Z,0.60
2018-03-20T09:29:42.787Z,0.80
2018-03-20T09:32:10.412Z,0.60
2018-03-20T09:34:38.036Z,0.40
2018-03-20T09:37:05.712Z,0.60
2018-03-20T09:39:33.336Z,0.60
2018-03-20T09:42:01.755Z,0.80
2018-03-20T09:44:29.424Z,0.70
2018-03-20T09:46:57.044Z,0.80
2018-03-20T09:49:25.438Z,0.80
2018-03-20T09:51:53.120Z,0.70
2018-03-20T09:54:20.752Z,0.40
2018-03-20T09:56:48.385Z,0.50
2018-03-20T09:59:16.066Z,0.70
2018-03-20T10:01:44.453Z,0.70
2018-03-20T10:04:12.076Z,0.70
2018-03-20T10:06:39.731Z,0.70
2018-03-20T10:09:07.367Z,0.50
2018-03-20T10:11:34.989Z,0.20
2018-03-20T10:14:02.655Z,0.20
2018-03-20T10:16:30.368Z,0.20
2018-03-20T10:18:57.997Z,0.10
2018-03-20T10:21:25.674Z,0.10
2018-03-20T10:23:53.301Z,0.20
2018-03-20T10:26:20.925Z,0.40
2018-03-20T10:28:48.572Z,0.40
2018-03-20T10:31:16.200Z,0.50
2018-03-20T10:33:43.838Z,0.60
2018-03-20T10:36:11.494Z,0.40
2018-03-20T10:38:39.121Z,0.50
2018-03-20T10:41:06.785Z,0.70
2018-03-20T10:43:34.412Z,0.80
2018-03-20T10:46:02.040Z,0.90
2018-03-20T10:48:29.707Z,1.00
2018-03-20T10:50:57.324Z,1.30
2018-03-20T10:53:25.720Z,1.40
2018-03-20T10:55:54.156Z,1.40
2018-03-20T10:58:21.793Z,1.40
2018-03-20T11:00:49.412Z,1.30
2018-03-20T11:03:17.828Z,0.90
2018-03-20T11:05:45.503Z,0.90
2018-03-20T11:08:13.129Z,0.70
2018-03-20T11:10:40.757Z,0.50
2018-03-20T11:13:08.412Z,0.50
2018-03-20T11:15:36.072Z,0.60
2018-03-20T11:18:03.720Z,0.50
2018-03-20T11:20:31.468Z,0.20
2018-03-20T11:22:59.104Z,0.10
2018-03-20T11:25:26.732Z,0.10
2018-03-20T11:27:55.148Z,0.10
2018-03-20T11:30:22.777Z,0.10
2018-03-20T11:32:51.168Z,0.10
2018-03-20T11:35:18.849Z,0.10
2018-03-20T11:37:46.469Z,0.00
2018-03-20T11:40:14.864Z,-0.10
2018-03-20T11:42:42.520Z,-0.10
2018-03-20T11:45:10.148Z,-0.40
2018-03-20T11:47:37.792Z,-0.50
2018-03-20T11:50:06.053Z,-0.50
2018-03-20T11:52:33.684Z,-0.40
2018-03-20T11:55:01.364Z,-0.30
2018-03-20T11:57:28.998Z,-0.20
2018-03-20T11:59:56.628Z,-0.20
2018-03-20T12:02:24.282Z,-0.20
2018-03-20T12:04:51.956Z,-0.20
2018-03-20T12:07:19.696Z,0.00
2018-03-20T12:09:49.286Z,0.10
2018-03-20T12:12:16.964Z,0.10
2018-03-20T12:14:44.616Z,0.20
2018-03-20T12:17:12.246Z,0.20
2018-03-20T12:19:39.868Z,0.30
2018-03-20T12:22:08.304Z,0.20
2018-03-20T12:24:35.923Z,0.20
2018-03-20T12:27:03.551Z,0.20
2018-03-20T12:29:31.203Z,0.10
2018-03-20T12:31:58.837Z,-0.10
2018-03-20T12:34:26.535Z,-0.10
2018-03-20T12:36:54.160Z,0.00
2018-03-20T12:39:21.784Z,0.40
2018-03-20T12:41:49.436Z,0.60
2018-03-20T12:44:17.829Z,0.60
2018-03-20T12:46:45.633Z,0.60
2018-03-20T12:49:14.020Z,0.70
2018-03-20T12:51:41.766Z,0.70
2018-03-20T12:54:09.734Z,0.80
2018-03-20T12:56:37.412Z,0.90
2018-03-20T12:59:05.157Z,0.90
2018-03-20T13:01:32.919Z,0.90
2018-03-20T13:04:00.683Z,0.70
2018-03-20T13:06:28.364Z,0.70
2018-03-20T13:08:56.124Z,0.40
2018-03-20T13:11:23.784Z,0.30
2018-03-20T13:13:51.530Z,0.30
2018-03-20T13:16:19.292Z,0.50
2018-03-20T13:18:46.975Z,0.60
2018-03-20T13:21:14.634Z,0.70
2018-03-20T13:23:42.479Z,0.70
2018-03-20T13:26:10.143Z,0.70
2018-03-20T13:28:37.799Z,0.60
2018-03-20T13:31:05.563Z,0.60
2018-03-20T13:33:33.240Z,0.40
2018-03-20T13:36:00.988Z,0.10
2018-03-20T13:38:28.852Z,0.10
2018-03-20T13:40:56.614Z,0.20
2018-03-20T13:43:24.377Z,0.40
2018-03-20T13:45:52.030Z,0.40
2018-03-20T13:48:19.803Z,0.40
2018-03-20T13:50:47.563Z,0.50
2018-03-20T13:53:32.121Z,0.60
2018-03-20T13:55:59.904Z,0.60
2018-03-20T13:58:27.749Z,0.80
2018-03-20T14:00:55.433Z,0.80
2018-03-20T14:03:23.991Z,0.70
2018-03-20T14:05:51.861Z,0.70
2018-03-20T14:08:19.537Z,0.50
2018-03-20T14:10:47.280Z,0.50
2018-03-20T14:13:14.960Z,0.50
2018-03-20T14:15:42.704Z,0.40
2018-03-20T14:18:10.466Z,0.30
2018-03-20T14:20:38.154Z,0.10
2018-03-20T14:23:05.913Z,-0.20
2018-03-20T14:25:33.570Z,-0.40
2018-03-20T14:28:01.261Z,-0.20
2018-03-20T14:30:29.657Z,-0.50
2018-03-20T14:32:57.288Z,-0.50
2018-03-20T14:35:25.747Z,-0.60
2018-03-20T14:37:53.400Z,-0.60
2018-03-20T14:40:21.037Z,-0.50
2018-03-20T14:42:48.716Z,-0.40
2018-03-20T14:45:16.348Z,-0.50
2018-03-20T14:47:43.984Z,-0.60
2018-03-20T14:50:12.432Z,-0.60
2018-03-20T14:52:40.078Z,-0.60
2018-03-20T14:55:07.708Z,-0.60
2018-03-20T14:57:35.373Z,-0.70
2018-03-20T15:00:03.027Z,-0.60
2018-03-20T15:02:30.664Z,-0.60
2018-03-20T15:04:59.092Z,-0.70
2018-03-20T15:07:26.724Z,-0.70
2018-03-20T15:09:54.513Z,-0.70
2018-03-20T15:12:22.176Z,-0.70
2018-03-20T15:14:49.820Z,-0.80
2018-03-20T15:17:17.477Z,-0.80
2018-03-20T15:19:45.112Z,-0.60
2018-03-20T15:22:12.770Z,-0.70
2018-03-20T15:24:40.424Z,-0.80
2018-03-20T15:27:08.953Z,-0.80
2018-03-20T15:29:36.584Z,-0.80
2018-03-20T15:32:04.212Z,-0.70
2018-03-20T15:34:32.754Z,-0.70
2018-03-20T15:37:00.540Z,-0.80
2018-03-20T15:39:28.382Z,-0.80
2018-03-20T15:41:56.144Z,-0.60
2018-03-20T15:44:24.011Z,-0.80
2018-03-20T15:46:51.692Z,-0.80
2018-03-20T15:49:20.253Z,-0.90
2018-03-20T15:51:48.016Z,-0.90
2018-03-20T15:54:15.644Z,-0.90
2018-03-20T15:56:43.281Z,-0.90
2018-03-20T15:59:11.705Z,-1.10
2018-03-20T16:01:39.348Z,-1.10
2018-03-20T16:04:07.009Z,-1.10
2018-03-20T16:06:34.644Z,-1.10
2018-03-20T16:09:03.181Z,-1.10
2018-03-20T16:11:31.607Z,-1.10
2018-03-20T16:14:00.047Z,-1.10
2018-03-20T16:16:27.683Z,-1.10
2018-03-20T16:18:55.354Z,-1.10
2018-03-20T16:21:23.030Z,-1.10
2018-03-20T16:23:50.660Z,-1.20
2018-03-20T16:26:18.316Z,-1.20
2018-03-20T16:28:45.967Z,-1.20
2018-03-20T16:31:13.620Z,-1.10
2018-03-20T16:33:41.296Z,-1.10
2018-03-20T16:36:08.948Z,-1.10
2018-03-20T16:38:36.582Z,-1.10
2018-03-20T16:41:05.025Z,-1.10
2018-03-20T16:43:32.660Z,-1.10
2018-03-20T16:46:00.298Z,-1.00
2018-03-20T16:48:27.954Z,-1.00
2018-03-20T16:50:55.658Z,-1.00
2018-03-20T16:53:23.453Z,-1.00
2018-03-20T16:55:52.002Z,-1.10
2018-03-20T16:58:19.765Z,-1.20
2018-03-20T17:00:47.630Z,-1.30
2018-03-20T17:03:15.264Z,-1.30
2018-03-20T17:05:42.904Z,-1.30
2018-03-20T17:08:11.325Z,-1.40
2018-03-20T17:10:39.016Z,-1.40
2018-03-20T17:13:06.657Z,-1.30
2018-03-20T17:15:34.300Z,-1.30
2018-03-20T17:18:02.002Z,-1.20
2018-03-20T17:20:29.636Z,-1.30
2018-03-20T17:22:57.277Z,-1.30
2018-03-20T17:25:24.928Z,-1.30
2018-03-20T17:27:52.556Z,-1.20
2018-03-20T17:30:20.977Z,-1.10
2018-03-20T17:32:48.754Z,-1.10
2018-03-20T17:35:16.400Z,-1.20
2018-03-20T17:37:44.048Z,-1.20
2018-03-20T17:40:11.704Z,-1.20
2018-03-20T17:42:39.336Z,-1.20
2018-03-20T17:45:07.797Z,-1.10
2018-03-20T17:47:35.432Z,-1.10
2018-03-20T17:50:03.064Z,-1.00
2018-03-20T17:52:30.755Z,-1.10
2018-03-20T17:54:58.389Z,-1.20
2018-03-20T17:57:26.025Z,-1.30
2018-03-20T17:59:54.461Z,-1.20
2018-03-20T18:02:22.105Z,-1.20
2018-03-20T18:04:49.735Z,-1.20
2018-03-20T18:07:17.414Z,-1.00
2018-03-20T18:09:45.052Z,-1.00
2018-03-20T18:12:12.690Z,-1.10
2018-03-20T18:14:41.139Z,-1.10
2018-03-20T18:17:08.798Z,-1.20
2018-03-20T18:19:36.440Z,-1.10
2018-03-20T18:22:04.121Z,-1.00
2018-03-20T18:24:31.756Z,-1.00
2018-03-20T18:26:59.384Z,-1.10
2018-03-20T18:29:27.836Z,-1.00
2018-03-20T18:31:55.469Z,-1.00
2018-03-20T18:34:23.104Z,-1.00
2018-03-20T18:36:50.780Z,-1.00
2018-03-20T18:39:18.411Z,-1.00
2018-03-20T18:41:46.046Z,-1.00
2018-03-20T18:44:13.720Z,-1.00
2018-03-20T18:46:42.125Z,-0.90
2018-03-20T18:49:09.765Z,-1.00
2018-03-20T18:51:38.294Z,-1.00
2018-03-20T18:54:06.055Z,-1.00
2018-03-20T18:56:33.820Z,-1.00
2018-03-20T18:59:01.585Z,-0.90
2018-03-20T19:01:29.216Z,-1.00
2018-03-20T19:03:57.004Z,-1.00
2018-03-20T19:06:24.769Z,-0.90
2018-03-20T19:08:52.408Z,-0.90
2018-03-20T19:11:20.073Z,-0.90
2018-03-20T19:13:47.705Z,-0.80
2018-03-20T19:16:15.364Z,-0.80
2018-03-20T19:18:43.045Z,-0.80
2018-03-20T19:21:10.681Z,-0.80
2018-03-20T19:23:39.080Z,-0.80
2018-03-20T19:26:06.737Z,-0.80
2018-03-20T19:28:34.388Z,-0.80
2018-03-20T19:31:02.073Z,-0.80
2018-03-20T19:33:29.710Z,-0.70
2018-03-20T19:35:57.340Z,-0.70
2018-03-20T19:38:25.013Z,-0.70
2018-03-20T19:40:53.416Z,-0.70
2018-03-20T19:43:21.069Z,-0.70
2018-03-20T19:45:48.729Z,-0.70
2018-03-20T19:48:16.389Z,-0.60
2018-03-20T19:50:44.789Z,-0.70
2018-03-20T19:53:12.444Z,-0.70
2018-03-20T19:55:40.083Z,-0.70
2018-03-20T19:58:07.764Z,-0.60
2018-03-20T20:00:35.409Z,-0.70
2018-03-20T20:03:03.056Z,-0.90
2018-03-20T20:05:31.480Z,-0.80
2018-03-20T20:07:59.116Z,-0.80
2018-03-20T20:10:26.788Z,-0.90
2018-03-20T20:12:54.428Z,-1.00
2018-03-20T20:15:22.098Z,-1.00
2018-03-20T20:17:49.775Z,-1.00
2018-03-20T20:20:17.596Z,-1.00
2018-03-20T20:22:45.992Z,-0.80
2018-03-20T20:25:13.665Z,-0.90
2018-03-20T20:27:41.301Z,-0.90
2018-03-20T20:30:09.697Z,-0.90
2018-03-20T20:32:37.357Z,-0.90
2018-03-20T20:35:04.997Z,-0.90
2018-03-20T20:37:33.441Z,-0.90
2018-03-20T20:40:01.140Z,-1.00
2018-03-20T20:42:29.712Z,-1.00
2018-03-20T20:44:58.132Z,-1.10
2018-03-20T20:47:25.826Z,-1.10
2018-03-20T20:49:53.455Z,-1.10
2018-03-20T20:52:21.104Z,-1.10
2018-03-20T20:54:48.782Z,-1.20
2018-03-20T20:57:16.428Z,-1.20
2018-03-20T20:59:44.104Z,-1.20
2018-03-20T21:02:11.737Z,-1.30
2018-03-20T21:04:39.364Z,-1.20
2018-03-20T21:07:07.024Z,-1.30
2018-03-20T21:09:34.663Z,-1.40
2018-03-20T21:12:02.331Z,-1.40
2018-03-20T21:14:29.975Z,-1.50
2018-03-20T21:16:57.637Z,-1.50
2018-03-20T21:19:25.288Z,-1.60
2018-03-20T21:21:52.969Z,-1.70
2018-03-20T21:24:20.589Z,-1.60
2018-03-20T21:26:48.240Z,-1.70
2018-03-20T21:29:15.873Z,-1.70
2018-03-20T21:31:43.529Z,-1.70
2018-03-20T21:34:11.160Z,-1.60
2018-03-20T21:36:38.829Z,-1.90
2018-03-20T21:39:06.461Z,-1.90
2018-03-20T21:41:34.088Z,-2.00
2018-03-20T21:44:01.768Z,-2.10
2018-03-20T21:46:29.523Z,-2.10
2018-03-20T21:48:58.088Z,-2.00
2018-03-20T21:51:26.509Z,-2.00
2018-03-20T21:53:54.136Z,-2.00
2018-03-20T21:56:22.553Z,-1.90
2018-03-20T21:58:50.214Z,-1.90
2018-03-20T22:01:17.896Z,-2.00
2018-03-20T22:03:45.540Z,-2.10
2018-03-20T22:06:13.213Z,-2.10
2018-03-20T22:08:40.848Z,-2.20
2018-03-20T22:11:08.477Z,-2.20
2018-03-20T22:13:36.892Z,-2.10
2018-03-20T22:16:04.525Z,-2.20
2018-03-20T22:18:32.164Z,-2.20
2018-03-20T22:21:00.611Z,-2.20
2018-03-20T22:23:28.256Z,-2.30
2018-03-20T22:25:55.889Z,-2.30
2018-03-20T22:28:23.550Z,-2.30
2018-03-20T22:30:51.180Z,-2.30
2018-03-20T22:33:19.585Z,-2.20
2018-03-20T22:35:47.268Z,-2.20
2018-03-20T22:38:14.913Z,-2.20
2018-03-20T22:40:42.548Z,-2.20
2018-03-20T22:43:10.964Z,-2.30
2018-03-20T22:45:38.651Z,-2.30
2018-03-20T22:48:06.280Z,-2.20
2018-03-20T22:50:33.903Z,-2.30
2018-03-20T22:53:02.337Z,-2.30
2018-03-20T22:55:29.964Z,-2.30
2018-03-20T22:57:57.592Z,-2.30
2018-03-20T23:00:29.637Z,-2.30
2018-03-20T23:02:57.381Z,-2.30
2018-03-20T23:05:25.041Z,-2.30
2018-03-20T23:07:52.803Z,-2.30
2018-03-20T23:10:20.480Z,-2.40
2018-03-20T23:12:48.227Z,-2.40
2018-03-20T23:15:15.994Z,-2.50
2018-03-20T23:17:43.645Z,-2.40
2018-03-20T23:20:11.414Z,-2.50
2018-03-20T23:22:39.176Z,-2.30
2018-03-20T23:25:06.853Z,-2.30
2018-03-20T23:27:34.600Z,-2.20
2018-03-20T23:30:02.364Z,-2.30
